Jerico, Iowa
Current Conditions -  °F | °C
As of 2:35 PM on Monday 26 Jan 2015 (Local Time) from KCCY Reporting Station
Few Clouds Few Clouds  
Wind Chill: 34°   Ceiling: Unl
Heat Index: 43°   Visibility: 10mi
Dew Point: 39°   Wind: 20mph
Humidity: 87%   Direction: 310°NW
Pressure: 29.75"   Gusts: NA
Location:  43.0559°N, 92.3113°W
Report Text: KCCY 262035Z AUTO 31017KT 10SM FEW019 FEW055 06/04 A2975 RMK AO2
Loading
Personal Weather Stations






























Interactive Weather Map New forecast layout! Learn more

10-Day Weather Forecast

Advertisements
Track Severe Weather on mobile